sensor_id;sensor_type;location;lat;lon;timestamp;temperature;humidity
7496;DHT22;3789;47.064;15.482;2024-02-04T00:01:53;6.70;99.90
7496;DHT22;3789;47.064;15.482;2024-02-04T00:04:21;6.30;99.90
7496;DHT22;3789;47.064;15.482;2024-02-04T00:06:53;6.20;99.90
7496;DHT22;3789;47.064;15.482;2024-02-04T00:09:22;6.10;99.90
7496;DHT22;3789;47.064;15.482;2024-02-04T00:11:50;5.90;99.90
7496;DHT22;3789;47.064;15.482;2024-02-04T00:14:22;5.80;99.90
7496;DHT22;3789;47.064;15.482;2024-02-04T00:17:07;5.90;99.90
7496;DHT22;3789;47.064;15.482;2024-02-04T00:19:40;5.80;99.90
7496;DHT22;3789;47.064;15.482;2024-02-04T00:22:09;5.80;99.90
7496;DHT22;3789;47.064;15.482;2024-02-04T00:24:44;6.00;99.90
7496;DHT22;3789;47.064;15.482;2024-02-04T00:27:21;6.20;99.90
7496;DHT22;3789;47.064;15.482;2024-02-04T00:29:52;6.30;99.90
7496;DHT22;3789;47.064;15.482;2024-02-04T00:32:34;6.40;99.90
7496;DHT22;3789;47.064;15.482;2024-02-04T00:35:05;6.50;99.90
7496;DHT22;3789;47.064;15.482;2024-02-04T00:37:33;6.50;99.90
7496;DHT22;3789;47.064;15.482;2024-02-04T00:40:05;6.60;99.90
7496;DHT22;3789;47.064;15.482;2024-02-04T00:42:37;6.30;99.90
7496;DHT22;3789;47.064;15.482;2024-02-04T00:45:06;6.30;99.90
7496;DHT22;3789;47.064;15.482;2024-02-04T00:47:41;6.40;99.90
7496;DHT22;3789;47.064;15.482;2024-02-04T00:50:15;6.50;99.90
7496;DHT22;3789;47.064;15.482;2024-02-04T00:52:56;6.60;99.90
7496;DHT22;3789;47.064;15.482;2024-02-04T00:55:40;6.60;99.90
7496;DHT22;3789;47.064;15.482;2024-02-04T00:58:13;6.60;99.90
7496;DHT22;3789;47.064;15.482;2024-02-04T01:00:42;6.60;99.90
7496;DHT22;3789;47.064;15.482;2024-02-04T01:03:09;6.50;99.90
7496;DHT22;3789;47.064;15.482;2024-02-04T01:09:28;6.30;99.90
7496;DHT22;3789;47.064;15.482;2024-02-04T01:11:56;6.60;99.90
7496;DHT22;3789;47.064;15.482;2024-02-04T01:14:24;6.40;99.90
7496;DHT22;3789;47.064;15.482;2024-02-04T01:16:51;6.40;99.90
7496;DHT22;3789;47.064;15.482;2024-02-04T01:19:19;6.50;99.90
7496;DHT22;3789;47.064;15.482;2024-02-04T01:21:47;6.60;99.90
7496;DHT22;3789;47.064;15.482;2024-02-04T01:24:14;6.40;99.90
7496;DHT22;3789;47.064;15.482;2024-02-04T01:26:42;6.40;99.90
7496;DHT22;3789;47.064;15.482;2024-02-04T01:29:09;6.40;99.90
7496;DHT22;3789;47.064;15.482;2024-02-04T01:31:37;6.20;99.90
7496;DHT22;3789;47.064;15.482;2024-02-04T01:34:04;6.00;99.90
7496;DHT22;3789;47.064;15.482;2024-02-04T01:36:32;6.00;99.90
7496;DHT22;3789;47.064;15.482;2024-02-04T01:39:00;6.00;99.90
7496;DHT22;3789;47.064;15.482;2024-02-04T01:41:29;5.70;99.90
7496;DHT22;3789;47.064;15.482;2024-02-04T01:44:03;5.50;99.90
7496;DHT22;3789;47.064;15.482;2024-02-04T01:46:42;5.20;99.90
7496;DHT22;3789;47.064;15.482;2024-02-04T01:49:30;5.10;99.90
7496;DHT22;3789;47.064;15.482;2024-02-04T01:51:59;4.90;99.90
7496;DHT22;3789;47.064;15.482;2024-02-04T01:54:27;4.90;99.90
7496;DHT22;3789;47.064;15.482;2024-02-04T01:57:18;4.90;99.90
7496;DHT22;3789;47.064;15.482;2024-02-04T02:00:01;4.90;99.90
7496;DHT22;3789;47.064;15.482;2024-02-04T02:02:33;4.90;99.90
7496;DHT22;3789;47.064;15.482;2024-02-04T02:05:13;5.00;99.90
7496;DHT22;3789;47.064;15.482;2024-02-04T02:07:48;4.80;99.90
7496;DHT22;3789;47.064;15.482;2024-02-04T02:10:29;4.90;99.90
7496;DHT22;3789;47.064;15.482;2024-02-04T02:15:48;4.80;99.90
7496;DHT22;3789;47.064;15.482;2024-02-04T02:18:53;4.90;99.90
7496;DHT22;3789;47.064;15.482;2024-02-04T02:24:42;4.80;99.90
7496;DHT22;3789;47.064;15.482;2024-02-04T02:27:10;4.80;99.90
7496;DHT22;3789;47.064;15.482;2024-02-04T02:29:42;4.80;99.90
7496;DHT22;3789;47.064;15.482;2024-02-04T02:32:35;4.80;99.90
7496;DHT22;3789;47.064;15.482;2024-02-04T02:35:06;4.70;99.90
7496;DHT22;3789;47.064;15.482;2024-02-04T02:41:14;4.70;99.90
7496;DHT22;3789;47.064;15.482;2024-02-04T02:44:01;4.80;99.90
7496;DHT22;3789;47.064;15.482;2024-02-04T02:46:34;4.70;99.90
7496;DHT22;3789;47.064;15.482;2024-02-04T02:49:25;4.80;99.90
7496;DHT22;3789;47.064;15.482;2024-02-04T02:52:05;4.70;99.90
7496;DHT22;3789;47.064;15.482;2024-02-04T02:54:48;4.50;99.90
7496;DHT22;3789;47.064;15.482;2024-02-04T02:57:20;4.40;99.90
7496;DHT22;3789;47.064;15.482;2024-02-04T03:00:06;4.30;99.90
7496;DHT22;3789;47.064;15.482;2024-02-04T03:02:38;4.30;99.90
7496;DHT22;3789;47.064;15.482;2024-02-04T03:05:12;4.40;99.90
7496;DHT22;3789;47.064;15.482;2024-02-04T03:08:03;4.20;99.90
7496;DHT22;3789;47.064;15.482;2024-02-04T03:10:36;4.00;99.90
7496;DHT22;3789;47.064;15.482;2024-02-04T03:13:10;4.00;99.90
7496;DHT22;3789;47.064;15.482;2024-02-04T03:15:44;4.00;99.90
7496;DHT22;3789;47.064;15.482;2024-02-04T03:18:14;3.90;99.90
7496;DHT22;3789;47.064;15.482;2024-02-04T03:20:56;4.00;99.90
7496;DHT22;3789;47.064;15.482;2024-02-04T03:23:32;4.00;99.90
7496;DHT22;3789;47.064;15.482;2024-02-04T03:26:25;4.00;99.90
7496;DHT22;3789;47.064;15.482;2024-02-04T03:28:59;4.20;99.90
7496;DHT22;3789;47.064;15.482;2024-02-04T03:31:38;4.10;99.90
7496;DHT22;3789;47.064;15.482;2024-02-04T03:34:15;4.00;99.90
7496;DHT22;3789;47.064;15.482;2024-02-04T03:36:58;4.00;99.90
7496;DHT22;3789;47.064;15.482;2024-02-04T03:39:34;4.00;99.90
7496;DHT22;3789;47.064;15.482;2024-02-04T03:42:20;4.00;99.90
7496;DHT22;3789;47.064;15.482;2024-02-04T03:44:57;4.20;99.90
7496;DHT22;3789;47.064;15.482;2024-02-04T03:47:38;4.20;99.90
7496;DHT22;3789;47.064;15.482;2024-02-04T03:50:06;4.40;99.90
7496;DHT22;3789;47.064;15.482;2024-02-04T03:52:41;4.70;99.90
7496;DHT22;3789;47.064;15.482;2024-02-04T03:55:33;5.10;99.90
7496;DHT22;3789;47.064;15.482;2024-02-04T03:58:32;5.40;99.90
7496;DHT22;3789;47.064;15.482;2024-02-04T04:01:15;5.50;99.90
7496;DHT22;3789;47.064;15.482;2024-02-04T04:04:07;5.30;99.90
7496;DHT22;3789;47.064;15.482;2024-02-04T04:09:41;5.60;99.90
7496;DHT22;3789;47.064;15.482;2024-02-04T04:12:43;5.50;99.90
7496;DHT22;3789;47.064;15.482;2024-02-04T04:15:20;5.70;99.90
7496;DHT22;3789;47.064;15.482;2024-02-04T04:18:05;5.60;99.90
7496;DHT22;3789;47.064;15.482;2024-02-04T04:20:37;4.90;99.90
7496;DHT22;3789;47.064;15.482;2024-02-04T04:23:04;4.70;99.90
7496;DHT22;3789;47.064;15.482;2024-02-04T04:25:32;4.50;99.90
7496;DHT22;3789;47.064;15.482;2024-02-04T04:28:03;4.40;99.90
7496;DHT22;3789;47.064;15.482;2024-02-04T04:30:32;4.50;99.90
7496;DHT22;3789;47.064;15.482;2024-02-04T04:33:03;4.40;99.90
7496;DHT22;3789;47.064;15.482;2024-02-04T04:35:31;4.60;99.90
7496;DHT22;3789;47.064;15.482;2024-02-04T04:38:00;4.80;99.90
7496;DHT22;3789;47.064;15.482;2024-02-04T04:40:38;5.00;99.90
7496;DHT22;3789;47.064;15.482;2024-02-04T04:43:07;5.00;99.90
7496;DHT22;3789;47.064;15.482;2024-02-04T04:45:36;5.30;99.90
7496;DHT22;3789;47.064;15.482;2024-02-04T04:48:04;5.50;99.90
7496;DHT22;3789;47.064;15.482;2024-02-04T04:50:35;5.60;99.90
7496;DHT22;3789;47.064;15.482;2024-02-04T04:53:03;5.60;99.90
7496;DHT22;3789;47.064;15.482;2024-02-04T04:55:32;5.50;99.90
7496;DHT22;3789;47.064;15.482;2024-02-04T04:58:02;5.50;99.90
7496;DHT22;3789;47.064;15.482;2024-02-04T05:00:34;5.40;99.90
7496;DHT22;3789;47.064;15.482;2024-02-04T05:03:02;5.20;99.90
7496;DHT22;3789;47.064;15.482;2024-02-04T05:05:33;4.70;99.90
7496;DHT22;3789;47.064;15.482;2024-02-04T05:08:04;4.40;99.90
7496;DHT22;3789;47.064;15.482;2024-02-04T05:10:32;4.40;99.90
7496;DHT22;3789;47.064;15.482;2024-02-04T05:13:05;4.30;99.90
7496;DHT22;3789;47.064;15.482;2024-02-04T05:15:34;4.10;99.90
7496;DHT22;3789;47.064;15.482;2024-02-04T05:18:05;4.20;99.90
7496;DHT22;3789;47.064;15.482;2024-02-04T05:20:35;4.50;99.90
7496;DHT22;3789;47.064;15.482;2024-02-04T05:23:10;4.60;99.90
7496;DHT22;3789;47.064;15.482;2024-02-04T05:25:37;4.60;99.90
7496;DHT22;3789;47.064;15.482;2024-02-04T05:28:06;4.50;99.90
7496;DHT22;3789;47.064;15.482;2024-02-04T05:30:34;4.20;99.90
7496;DHT22;3789;47.064;15.482;2024-02-04T05:33:01;3.80;99.90
7496;DHT22;3789;47.064;15.482;2024-02-04T05:35:30;3.70;99.90
7496;DHT22;3789;47.064;15.482;2024-02-04T05:37:58;3.70;99.90
7496;DHT22;3789;47.064;15.482;2024-02-04T05:40:36;3.70;99.90
7496;DHT22;3789;47.064;15.482;2024-02-04T05:43:06;3.70;99.90
7496;DHT22;3789;47.064;15.482;2024-02-04T05:45:42;3.70;99.90
7496;DHT22;3789;47.064;15.482;2024-02-04T05:48:10;3.80;99.90
7496;DHT22;3789;47.064;15.482;2024-02-04T05:50:40;3.70;99.90
7496;DHT22;3789;47.064;15.482;2024-02-04T05:53:17;3.60;99.90
7496;DHT22;3789;47.064;15.482;2024-02-04T05:55:47;3.50;99.90
7496;DHT22;3789;47.064;15.482;2024-02-04T05:58:15;3.40;99.90
7496;DHT22;3789;47.064;15.482;2024-02-04T06:00:46;3.20;99.90
7496;DHT22;3789;47.064;15.482;2024-02-04T06:03:21;3.00;99.90
7496;DHT22;3789;47.064;15.482;2024-02-04T06:05:54;3.00;99.90
7496;DHT22;3789;47.064;15.482;2024-02-04T06:08:24;3.10;99.90
7496;DHT22;3789;47.064;15.482;2024-02-04T06:10:54;2.90;99.90
7496;DHT22;3789;47.064;15.482;2024-02-04T06:13:21;2.80;99.90
7496;DHT22;3789;47.064;15.482;2024-02-04T06:15:49;2.80;99.90
7496;DHT22;3789;47.064;15.482;2024-02-04T06:18:18;2.80;99.90
7496;DHT22;3789;47.064;15.482;2024-02-04T06:20:46;2.70;99.90
7496;DHT22;3789;47.064;15.482;2024-02-04T06:23:15;2.90;99.90
7496;DHT22;3789;47.064;15.482;2024-02-04T06:25:47;3.10;99.90
7496;DHT22;3789;47.064;15.482;2024-02-04T06:28:18;3.20;99.90
7496;DHT22;3789;47.064;15.482;2024-02-04T06:30:49;3.20;99.90
7496;DHT22;3789;47.064;15.482;2024-02-04T06:33:24;3.20;99.90
7496;DHT22;3789;47.064;15.482;2024-02-04T06:35:55;2.90;99.90
7496;DHT22;3789;47.064;15.482;2024-02-04T06:38:25;2.60;99.90
7496;DHT22;3789;47.064;15.482;2024-02-04T06:40:56;2.80;99.90
7496;DHT22;3789;47.064;15.482;2024-02-04T06:43:28;3.00;99.90
7496;DHT22;3789;47.064;15.482;2024-02-04T06:46:04;3.20;99.90
7496;DHT22;3789;47.064;15.482;2024-02-04T06:48:33;3.00;99.90
7496;DHT22;3789;47.064;15.482;2024-02-04T06:51:02;3.00;99.90
7496;DHT22;3789;47.064;15.482;2024-02-04T06:53:39;3.20;99.90
7496;DHT22;3789;47.064;15.482;2024-02-04T06:56:08;3.50;99.90
7496;DHT22;3789;47.064;15.482;2024-02-04T06:58:40;3.80;99.90
7496;DHT22;3789;47.064;15.482;2024-02-04T07:01:11;4.10;99.90
7496;DHT22;3789;47.064;15.482;2024-02-04T07:03:39;4.20;99.90
7496;DHT22;3789;47.064;15.482;2024-02-04T07:06:10;4.30;99.90
7496;DHT22;3789;47.064;15.482;2024-02-04T07:08:41;4.40;99.90
7496;DHT22;3789;47.064;15.482;2024-02-04T07:11:09;4.40;99.90
7496;DHT22;3789;47.064;15.482;2024-02-04T07:13:38;4.60;99.90
7496;DHT22;3789;47.064;15.482;2024-02-04T07:16:08;4.70;99.90
7496;DHT22;3789;47.064;15.482;2024-02-04T07:18:41;5.00;99.90
7496;DHT22;3789;47.064;15.482;2024-02-04T07:21:15;4.80;99.90
7496;DHT22;3789;47.064;15.482;2024-02-04T07:24:16;4.70;99.90
7496;DHT22;3789;47.064;15.482;2024-02-04T07:27:31;5.00;99.90
7496;DHT22;3789;47.064;15.482;2024-02-04T07:30:02;5.50;99.90
7496;DHT22;3789;47.064;15.482;2024-02-04T07:32:34;6.20;99.90
7496;DHT22;3789;47.064;15.482;2024-02-04T07:35:06;6.70;99.90
7496;DHT22;3789;47.064;15.482;2024-02-04T07:37:36;6.70;99.90
7496;DHT22;3789;47.064;15.482;2024-02-04T07:40:05;6.90;99.90
7496;DHT22;3789;47.064;15.482;2024-02-04T07:42:35;6.90;99.90
7496;DHT22;3789;47.064;15.482;2024-02-04T07:45:06;7.00;99.90
7496;DHT22;3789;47.064;15.482;2024-02-04T07:47:37;7.00;99.90
7496;DHT22;3789;47.064;15.482;2024-02-04T07:50:05;7.10;99.90
7496;DHT22;3789;47.064;15.482;2024-02-04T07:52:38;6.70;99.90
7496;DHT22;3789;47.064;15.482;2024-02-04T07:55:13;6.60;99.90
7496;DHT22;3789;47.064;15.482;2024-02-04T07:57:42;6.70;99.90
7496;DHT22;3789;47.064;15.482;2024-02-04T08:00:11;6.10;99.90
7496;DHT22;3789;47.064;15.482;2024-02-04T08:02:47;5.60;99.90
7496;DHT22;3789;47.064;15.482;2024-02-04T08:05:17;5.20;99.90
7496;DHT22;3789;47.064;15.482;2024-02-04T08:07:47;5.20;99.90
7496;DHT22;3789;47.064;15.482;2024-02-04T08:10:17;5.30;99.90
7496;DHT22;3789;47.064;15.482;2024-02-04T08:12:46;7.00;99.90
7496;DHT22;3789;47.064;15.482;2024-02-04T08:15:22;8.80;99.90
7496;DHT22;3789;47.064;15.482;2024-02-04T08:17:51;9.90;99.90
7496;DHT22;3789;47.064;15.482;2024-02-04T08:20:22;10.10;99.90
7496;DHT22;3789;47.064;15.482;2024-02-04T08:22:53;9.70;99.90
7496;DHT22;3789;47.064;15.482;2024-02-04T08:25:23;9.70;99.90
7496;DHT22;3789;47.064;15.482;2024-02-04T08:27:52;9.80;99.90
7496;DHT22;3789;47.064;15.482;2024-02-04T08:30:25;9.90;99.90
7496;DHT22;3789;47.064;15.482;2024-02-04T08:32:55;10.00;99.90
7496;DHT22;3789;47.064;15.482;2024-02-04T08:35:24;10.10;99.90
7496;DHT22;3789;47.064;15.482;2024-02-04T08:37:54;10.10;99.90
7496;DHT22;3789;47.064;15.482;2024-02-04T08:40:22;10.20;99.90
7496;DHT22;3789;47.064;15.482;2024-02-04T08:42:54;10.50;99.90
7496;DHT22;3789;47.064;15.482;2024-02-04T08:45:21;10.70;99.90
7496;DHT22;3789;47.064;15.482;2024-02-04T08:47:49;10.80;99.90
7496;DHT22;3789;47.064;15.482;2024-02-04T08:50:16;10.90;99.90
7496;DHT22;3789;47.064;15.482;2024-02-04T08:52:47;10.60;99.90
7496;DHT22;3789;47.064;15.482;2024-02-04T08:55:16;10.20;99.90
7496;DHT22;3789;47.064;15.482;2024-02-04T08:57:48;9.70;99.90
7496;DHT22;3789;47.064;15.482;2024-02-04T09:00:16;9.50;99.90
7496;DHT22;3789;47.064;15.482;2024-02-04T09:02:52;9.40;99.90
7496;DHT22;3789;47.064;15.482;2024-02-04T09:05:22;9.30;99.90
7496;DHT22;3789;47.064;15.482;2024-02-04T09:07:59;9.10;99.90
7496;DHT22;3789;47.064;15.482;2024-02-04T09:10:32;8.50;99.90
7496;DHT22;3789;47.064;15.482;2024-02-04T09:13:00;8.30;99.90
7496;DHT22;3789;47.064;15.482;2024-02-04T09:15:36;8.30;99.90
7496;DHT22;3789;47.064;15.482;2024-02-04T09:18:07;8.50;99.90
7496;DHT22;3789;47.064;15.482;2024-02-04T09:20:36;8.60;99.90
7496;DHT22;3789;47.064;15.482;2024-02-04T09:23:06;8.70;99.90
7496;DHT22;3789;47.064;15.482;2024-02-04T09:25:37;8.70;99.90
7496;DHT22;3789;47.064;15.482;2024-02-04T09:28:05;8.90;99.90
7496;DHT22;3789;47.064;15.482;2024-02-04T09:30:36;8.80;99.90
7496;DHT22;3789;47.064;15.482;2024-02-04T09:33:13;8.80;99.90
7496;DHT22;3789;47.064;15.482;2024-02-04T09:35:44;8.50;99.90
7496;DHT22;3789;47.064;15.482;2024-02-04T09:38:16;8.30;99.90
7496;DHT22;3789;47.064;15.482;2024-02-04T09:40:45;8.50;99.90
7496;DHT22;3789;47.064;15.482;2024-02-04T09:43:17;8.90;99.90
7496;DHT22;3789;47.064;15.482;2024-02-04T09:45:48;9.40;99.90
7496;DHT22;3789;47.064;15.482;2024-02-04T09:48:22;9.80;99.90
7496;DHT22;3789;47.064;15.482;2024-02-04T09:50:54;10.40;99.90
7496;DHT22;3789;47.064;15.482;2024-02-04T09:53:35;10.70;99.90
7496;DHT22;3789;47.064;15.482;2024-02-04T09:56:08;10.90;99.90
7496;DHT22;3789;47.064;15.482;2024-02-04T09:58:37;11.00;99.90
7496;DHT22;3789;47.064;15.482;2024-02-04T10:01:07;11.10;99.90
7496;DHT22;3789;47.064;15.482;2024-02-04T10:03:37;11.20;99.90
7496;DHT22;3789;47.064;15.482;2024-02-04T10:06:07;11.30;99.90
7496;DHT22;3789;47.064;15.482;2024-02-04T10:08:50;11.30;99.90
7496;DHT22;3789;47.064;15.482;2024-02-04T10:11:22;11.30;99.90
7496;DHT22;3789;47.064;15.482;2024-02-04T10:13:49;11.40;99.90
7496;DHT22;3789;47.064;15.482;2024-02-04T10:16:19;11.20;99.90
7496;DHT22;3789;47.064;15.482;2024-02-04T10:18:50;11.00;99.90
7496;DHT22;3789;47.064;15.482;2024-02-04T10:21:23;11.00;99.90
7496;DHT22;3789;47.064;15.482;2024-02-04T10:23:57;11.00;99.90
7496;DHT22;3789;47.064;15.482;2024-02-04T10:26:30;10.80;99.90
7496;DHT22;3789;47.064;15.482;2024-02-04T10:29:00;10.70;99.90
7496;DHT22;3789;47.064;15.482;2024-02-04T10:31:33;10.60;99.90
7496;DHT22;3789;47.064;15.482;2024-02-04T10:34:01;10.60;99.90
7496;DHT22;3789;47.064;15.482;2024-02-04T10:36:30;10.70;99.90
7496;DHT22;3789;47.064;15.482;2024-02-04T10:38:59;10.80;99.90
7496;DHT22;3789;47.064;15.482;2024-02-04T10:41:32;10.90;99.90
7496;DHT22;3789;47.064;15.482;2024-02-04T10:44:03;11.00;99.90
7496;DHT22;3789;47.064;15.482;2024-02-04T10:46:33;11.20;99.90
7496;DHT22;3789;47.064;15.482;2024-02-04T10:49:08;11.60;99.90
7496;DHT22;3789;47.064;15.482;2024-02-04T10:51:42;11.80;99.90
7496;DHT22;3789;47.064;15.482;2024-02-04T10:54:16;11.80;99.90
7496;DHT22;3789;47.064;15.482;2024-02-04T10:56:46;11.90;99.90
7496;DHT22;3789;47.064;15.482;2024-02-04T10:59:18;12.20;99.90
7496;DHT22;3789;47.064;15.482;2024-02-04T11:02:01;12.60;99.90
7496;DHT22;3789;47.064;15.482;2024-02-04T11:04:33;12.80;99.90
7496;DHT22;3789;47.064;15.482;2024-02-04T11:07:07;12.90;99.90
7496;DHT22;3789;47.064;15.482;2024-02-04T11:09:37;13.00;99.90
7496;DHT22;3789;47.064;15.482;2024-02-04T11:12:16;12.90;99.90
7496;DHT22;3789;47.064;15.482;2024-02-04T11:14:51;12.90;99.90
7496;DHT22;3789;47.064;15.482;2024-02-04T11:21:17;12.80;99.90
7496;DHT22;3789;47.064;15.482;2024-02-04T11:26:59;12.90;99.90
7496;DHT22;3789;47.064;15.482;2024-02-04T11:29:29;13.00;99.90
7496;DHT22;3789;47.064;15.482;2024-02-04T11:31:59;12.90;99.90
7496;DHT22;3789;47.064;15.482;2024-02-04T11:34:29;13.00;99.90
7496;DHT22;3789;47.064;15.482;2024-02-04T11:37:17;13.00;99.90
7496;DHT22;3789;47.064;15.482;2024-02-04T11:39:52;13.30;99.90
7496;DHT22;3789;47.064;15.482;2024-02-04T11:42:31;13.30;99.90
7496;DHT22;3789;47.064;15.482;2024-02-04T11:45:14;13.40;99.90
7496;DHT22;3789;47.064;15.482;2024-02-04T11:47:46;13.40;99.90
7496;DHT22;3789;47.064;15.482;2024-02-04T11:50:28;13.40;99.90
7496;DHT22;3789;47.064;15.482;2024-02-04T11:53:12;13.60;99.90
7496;DHT22;3789;47.064;15.482;2024-02-04T11:55:41;13.70;99.90
7496;DHT22;3789;47.064;15.482;2024-02-04T11:58:13;13.80;99.90
7496;DHT22;3789;47.064;15.482;2024-02-04T12:00:46;13.80;99.90
7496;DHT22;3789;47.064;15.482;2024-02-04T12:03:33;14.00;99.90
7496;DHT22;3789;47.064;15.482;2024-02-04T12:06:04;13.80;99.90
7496;DHT22;3789;47.064;15.482;2024-02-04T12:08:51;13.90;99.90
7496;DHT22;3789;47.064;15.482;2024-02-04T12:11:23;14.00;99.90
7496;DHT22;3789;47.064;15.482;2024-02-04T12:13:56;14.20;99.90
7496;DHT22;3789;47.064;15.482;2024-02-04T12:16:25;14.20;99.90
7496;DHT22;3789;47.064;15.482;2024-02-04T12:18:52;14.10;99.90
7496;DHT22;3789;47.064;15.482;2024-02-04T12:21:21;14.00;99.90
7496;DHT22;3789;47.064;15.482;2024-02-04T12:23:53;13.90;99.90
7496;DHT22;3789;47.064;15.482;2024-02-04T12:26:22;14.10;99.90
7496;DHT22;3789;47.064;15.482;2024-02-04T12:28:53;14.10;99.90
7496;DHT22;3789;47.064;15.482;2024-02-04T12:31:27;14.20;99.90
7496;DHT22;3789;47.064;15.482;2024-02-04T12:34:00;14.00;99.90
7496;DHT22;3789;47.064;15.482;2024-02-04T12:36:57;14.00;99.90
7496;DHT22;3789;47.064;15.482;2024-02-04T12:39:29;14.10;99.90
7496;DHT22;3789;47.064;15.482;2024-02-04T12:42:01;14.20;99.90
7496;DHT22;3789;47.064;15.482;2024-02-04T12:44:31;14.10;99.90
7496;DHT22;3789;47.064;15.482;2024-02-04T12:47:00;14.00;99.50
7496;DHT22;3789;47.064;15.482;2024-02-04T12:49:29;13.90;99.80
7496;DHT22;3789;47.064;15.482;2024-02-04T12:52:05;13.90;99.80
7496;DHT22;3789;47.064;15.482;2024-02-04T12:54:45;14.00;99.90
7496;DHT22;3789;47.064;15.482;2024-02-04T12:57:31;14.20;99.20
7496;DHT22;3789;47.064;15.482;2024-02-04T13:00:07;14.30;99.00
7496;DHT22;3789;47.064;15.482;2024-02-04T13:02:37;14.30;98.60
7496;DHT22;3789;47.064;15.482;2024-02-04T13:05:08;14.30;98.90
7496;DHT22;3789;47.064;15.482;2024-02-04T13:07:37;14.40;99.00
7496;DHT22;3789;47.064;15.482;2024-02-04T13:10:11;14.40;98.80
7496;DHT22;3789;47.064;15.482;2024-02-04T13:13:07;14.30;99.20
7496;DHT22;3789;47.064;15.482;2024-02-04T13:15:57;14.30;99.30
7496;DHT22;3789;47.064;15.482;2024-02-04T13:18:29;14.30;99.00
7496;DHT22;3789;47.064;15.482;2024-02-04T13:20:57;14.50;98.60
7496;DHT22;3789;47.064;15.482;2024-02-04T13:23:28;14.50;98.70
7496;DHT22;3789;47.064;15.482;2024-02-04T13:26:00;14.50;99.10
7496;DHT22;3789;47.064;15.482;2024-02-04T13:28:28;14.50;98.60
7496;DHT22;3789;47.064;15.482;2024-02-04T13:30:56;14.50;98.60
7496;DHT22;3789;47.064;15.482;2024-02-04T13:33:25;14.50;98.00
7496;DHT22;3789;47.064;15.482;2024-02-04T13:36:09;14.40;97.70
7496;DHT22;3789;47.064;15.482;2024-02-04T13:38:43;14.40;97.80
7496;DHT22;3789;47.064;15.482;2024-02-04T13:41:15;14.50;97.60
7496;DHT22;3789;47.064;15.482;2024-02-04T13:43:51;14.50;97.40
7496;DHT22;3789;47.064;15.482;2024-02-04T13:46:19;14.50;97.50
7496;DHT22;3789;47.064;15.482;2024-02-04T13:48:50;14.40;96.90
7496;DHT22;3789;47.064;15.482;2024-02-04T13:51:20;14.50;96.80
7496;DHT22;3789;47.064;15.482;2024-02-04T13:54:08;14.50;96.80
7496;DHT22;3789;47.064;15.482;2024-02-04T13:56:39;14.50;96.80
7496;DHT22;3789;47.064;15.482;2024-02-04T13:59:08;14.50;96.50
7496;DHT22;3789;47.064;15.482;2024-02-04T14:01:37;14.50;96.60
7496;DHT22;3789;47.064;15.482;2024-02-04T14:04:12;14.60;96.60
7496;DHT22;3789;47.064;15.482;2024-02-04T14:06:42;14.40;96.60
7496;DHT22;3789;47.064;15.482;2024-02-04T14:09:12;14.40;96.70
7496;DHT22;3789;47.064;15.482;2024-02-04T14:11:43;14.40;96.70
7496;DHT22;3789;47.064;15.482;2024-02-04T14:14:10;14.40;96.70
7496;DHT22;3789;47.064;15.482;2024-02-04T14:16:40;14.40;97.00
7496;DHT22;3789;47.064;15.482;2024-02-04T14:19:09;14.50;97.10
7496;DHT22;3789;47.064;15.482;2024-02-04T14:21:40;14.50;97.40
7496;DHT22;3789;47.064;15.482;2024-02-04T14:24:10;14.50;97.10
7496;DHT22;3789;47.064;15.482;2024-02-04T14:26:41;14.40;97.00
7496;DHT22;3789;47.064;15.482;2024-02-04T14:29:10;14.30;96.80
7496;DHT22;3789;47.064;15.482;2024-02-04T14:31:42;14.40;97.40
7496;DHT22;3789;47.064;15.482;2024-02-04T14:34:18;14.40;96.90
7496;DHT22;3789;47.064;15.482;2024-02-04T14:37:01;14.40;96.80
7496;DHT22;3789;47.064;15.482;2024-02-04T14:39:32;14.30;97.10
7496;DHT22;3789;47.064;15.482;2024-02-04T14:42:00;14.30;97.30
7496;DHT22;3789;47.064;15.482;2024-02-04T14:44:37;14.40;97.50
7496;DHT22;3789;47.064;15.482;2024-02-04T14:47:06;14.40;97.50
7496;DHT22;3789;47.064;15.482;2024-02-04T14:49:38;14.40;97.40
7496;DHT22;3789;47.064;15.482;2024-02-04T14:52:16;14.40;97.20
7496;DHT22;3789;47.064;15.482;2024-02-04T14:55:08;14.40;97.30
7496;DHT22;3789;47.064;15.482;2024-02-04T14:57:44;14.20;97.10
7496;DHT22;3789;47.064;15.482;2024-02-04T15:00:21;14.00;97.00
7496;DHT22;3789;47.064;15.482;2024-02-04T15:02:54;14.00;97.20
7496;DHT22;3789;47.064;15.482;2024-02-04T15:05:35;14.00;97.00
7496;DHT22;3789;47.064;15.482;2024-02-04T15:08:02;13.90;97.30
7496;DHT22;3789;47.064;15.482;2024-02-04T15:10:42;13.90;97.50
7496;DHT22;3789;47.064;15.482;2024-02-04T15:13:10;14.00;97.50
7496;DHT22;3789;47.064;15.482;2024-02-04T15:15:41;13.90;97.50
7496;DHT22;3789;47.064;15.482;2024-02-04T15:18:10;13.70;97.60
7496;DHT22;3789;47.064;15.482;2024-02-04T15:20:41;13.60;97.70
7496;DHT22;3789;47.064;15.482;2024-02-04T15:23:11;13.50;97.80
7496;DHT22;3789;47.064;15.482;2024-02-04T15:25:48;13.40;98.00
7496;DHT22;3789;47.064;15.482;2024-02-04T15:28:17;13.20;98.00
7496;DHT22;3789;47.064;15.482;2024-02-04T15:30:46;13.20;98.10
7496;DHT22;3789;47.064;15.482;2024-02-04T15:33:17;13.20;98.20
7496;DHT22;3789;47.064;15.482;2024-02-04T15:35:50;13.10;98.60
7496;DHT22;3789;47.064;15.482;2024-02-04T15:38:20;13.00;98.60
7496;DHT22;3789;47.064;15.482;2024-02-04T15:40:50;13.00;98.70
7496;DHT22;3789;47.064;15.482;2024-02-04T15:43:18;12.90;98.50
7496;DHT22;3789;47.064;15.482;2024-02-04T15:45:47;13.00;98.60
7496;DHT22;3789;47.064;15.482;2024-02-04T15:48:18;13.00;98.40
7496;DHT22;3789;47.064;15.482;2024-02-04T15:50:50;12.90;98.60
7496;DHT22;3789;47.064;15.482;2024-02-04T15:53:22;12.80;98.70
7496;DHT22;3789;47.064;15.482;2024-02-04T15:55:52;12.80;98.70
7496;DHT22;3789;47.064;15.482;2024-02-04T15:58:26;12.70;99.00
7496;DHT22;3789;47.064;15.482;2024-02-04T16:01:02;12.60;98.80
7496;DHT22;3789;47.064;15.482;2024-02-04T16:03:44;12.50;99.00
7496;DHT22;3789;47.064;15.482;2024-02-04T16:06:20;12.50;98.90
7496;DHT22;3789;47.064;15.482;2024-02-04T16:08:49;12.60;99.00
7496;DHT22;3789;47.064;15.482;2024-02-04T16:11:23;12.50;99.00
7496;DHT22;3789;47.064;15.482;2024-02-04T16:13:54;12.30;99.20
7496;DHT22;3789;47.064;15.482;2024-02-04T16:16:36;12.20;99.40
7496;DHT22;3789;47.064;15.482;2024-02-04T16:19:20;12.10;99.80
7496;DHT22;3789;47.064;15.482;2024-02-04T16:21:52;12.00;99.90
7496;DHT22;3789;47.064;15.482;2024-02-04T16:24:21;11.90;99.90
7496;DHT22;3789;47.064;15.482;2024-02-04T16:26:50;12.10;99.90
7496;DHT22;3789;47.064;15.482;2024-02-04T16:29:20;12.00;99.90
7496;DHT22;3789;47.064;15.482;2024-02-04T16:31:56;11.90;99.90
7496;DHT22;3789;47.064;15.482;2024-02-04T16:34:25;11.90;99.90
7496;DHT22;3789;47.064;15.482;2024-02-04T16:36:57;11.80;99.90
7496;DHT22;3789;47.064;15.482;2024-02-04T16:39:31;11.80;99.90
7496;DHT22;3789;47.064;15.482;2024-02-04T16:41:59;11.70;99.90
7496;DHT22;3789;47.064;15.482;2024-02-04T16:44:27;11.70;99.90
7496;DHT22;3789;47.064;15.482;2024-02-04T16:46:58;11.60;99.90
7496;DHT22;3789;47.064;15.482;2024-02-04T16:49:27;11.80;99.90
7496;DHT22;3789;47.064;15.482;2024-02-04T16:51:56;11.70;99.90
7496;DHT22;3789;47.064;15.482;2024-02-04T16:54:25;11.50;99.90
7496;DHT22;3789;47.064;15.482;2024-02-04T16:56:59;11.40;99.90